KPHF METAR and TAF | Updated Today

KPHF METAR

Newport News Williamsburg International Airport

Observation time: 43 min. ago

KPHF 261254Z 20006KT 10SM CLR 23/21 A3018 RMK AO2 SLP218 T02330206

Need help? Read our tutorial on how to read METARs or read the parsed version below.

Newport News Williamsburg International Airport (KPHF) METAR

  • Weather conditions on Sun, 26 Jun 2022 12:54:00 +0000 (43 min. ago):
  • Present conditions: Dry
  • Clouds: Clear skies
  • Visibility: 16093 meters
  • Wind: 200 degrees at 6 knots
  • Temperature: 23 celsius
  • Dew point: 21 celsius
  • Pressure: 30.18 inHg
  • Remarks: AO2 SLP218 T02330206


Useful to know...

KPHF TAF

Newport News Williamsburg International Airport

KPHF 261120Z 2612/2712 20006KT P6SM SKC FM261700 17010KT P6SM SKC FM270400 20008KT P6SM SCT250
Observation time: 2:17 hr. ago
Need help? Read our tutorial on how to read TAFs or read the parsed version below.

Parsed version of TAF for Newport News Williamsburg International Airport (KPHF)

  • From 26 June at 12:00 UTC, to day 27 of the month at 12:00 UTC
  • Clouds: No significant changes expected
  • Wind: 200 degrees at 6
  • From day 26 of the month at 17:00 UTC
  • Clouds: No significant changes expected
  • Wind: 170 degrees at 10
  • From day 27 of the month at 04:00 UTC
  • Clouds: Scattered at 7620 meters
  • Wind: 200 degrees at 8